National Weather Service
For a better view on National Weather Service, Update Your Browser.
Today's Forecast As of 1 Dec 2021 9:46 PM
Partly Cloudy
72o F
Partly Cloudy
Min 72o F | Max 84o F
  • Northeast at 10 to 15 knots.

  • Moderate with a wave height of 3 to 5 feet.

06:43 17:45

Aviation Forecast

Grand Cayman: Terminal Aerodrome Forecast

Last updated at 01 Dec 2021 06:07 PM

TAF MWCR 011700Z 0118/0218 07014KT 9999 SCT020

Grand Cayman: Metar Reports

Last updated at 01 Dec 2021 08:00 PM

Dec 01, 2021 - 08:00 PM EST / 2021.12.02 0100 UTC
Wind: from the E (090 degrees) at 6 MPH (5 KT):0
Visibility: greater than 7 mile(s):0
Sky conditions: mostly clear
Temperature: 78 F (26 C)
Dew Point: 75 F (24 C)
Relative Humidity: 88%
Pressure (altimeter): 30.06 in. Hg (1018 hPa)
ob: MWCR 020100Z 09005KT 9999 FEW022 26/24 Q1018

Cayman Brac: Terminal Aerodrome Forecast

Last updated at 01 Dec 2021 06:03 PM

TAF MWCB 011700Z 0118/0218 07015KT 9999 SCT018

Cayman Brac: Metar Reports

Last updated at 01 Dec 2021 07:00 PM

Dec 01, 2021 - 07:00 PM EST / 2021.12.02 0000 UTC
Wind: from the E (090 degrees) at 3 MPH (3 KT):0
Visibility: greater than 7 mile(s):0
Sky conditions: mostly clear
Temperature: 78 F (26 C)
Dew Point: 71 F (22 C)
Relative Humidity: 78%
Pressure (altimeter): 30.03 in. Hg (1017 hPa)
ob: MWCB 020000Z 090003KT 9999 FEW016 26/22 Q1017

Turbulence

The weather radar is not operational at this time. Sorry for the inconvenience.

Wind SHEAR

The weather radar is not operational at this time. Sorry for the inconvenience.